createdAt,value
2023-02-05T00:04:15.432Z,100.00
2023-02-05T00:09:18.138Z,100.00
2023-02-05T00:14:19.814Z,100.00
2023-02-05T00:19:21.456Z,100.00
2023-02-05T00:24:23.206Z,100.00
2023-02-05T00:29:24.807Z,100.00
2023-02-05T00:34:26.415Z,100.00
2023-02-05T00:39:28.124Z,100.00
2023-02-05T00:44:29.909Z,100.00
2023-02-05T00:49:31.562Z,100.00
2023-02-05T00:54:33.239Z,100.00
2023-02-05T00:59:34.921Z,100.00
2023-02-05T01:04:36.532Z,100.00
2023-02-05T01:09:38.321Z,100.00
2023-02-05T01:14:41.396Z,100.00
2023-02-05T01:19:43.037Z,100.00
2023-02-05T01:24:44.778Z,99.62
2023-02-05T01:29:46.600Z,99.41
2023-02-05T01:34:49.007Z,98.72
2023-02-05T01:39:50.796Z,99.02
2023-02-05T01:45:21.661Z,98.52
2023-02-05T01:50:32.292Z,99.12
2023-02-05T01:55:39.624Z,98.74
2023-02-05T02:00:41.661Z,98.87
2023-02-05T02:05:43.436Z,98.42
2023-02-05T02:10:48.616Z,98.63
2023-02-05T02:15:50.613Z,97.52
2023-02-05T02:21:38.977Z,97.81
2023-02-05T02:27:05.442Z,97.27
2023-02-05T02:32:24.363Z,97.08
2023-02-05T02:37:34.434Z,96.76
2023-02-05T02:42:46.326Z,96.62
2023-02-05T02:47:53.284Z,96.96
2023-02-05T02:52:56.372Z,97.05
2023-02-05T02:57:59.570Z,98.23
2023-02-05T03:03:05.483Z,100.00
2023-02-05T03:08:13.862Z,100.00
2023-02-05T03:13:15.665Z,100.00
2023-02-05T03:18:24.000Z,100.00
2023-02-05T03:23:29.755Z,100.00
2023-02-05T03:28:32.168Z,100.00
2023-02-05T03:33:57.859Z,100.00
2023-02-05T03:39:16.339Z,100.00
2023-02-05T03:44:50.758Z,100.00
2023-02-05T03:50:07.175Z,100.00
2023-02-05T03:55:17.451Z,100.00
2023-02-05T04:00:20.346Z,100.00
2023-02-05T04:05:26.835Z,100.00
2023-02-05T04:10:31.859Z,100.00
2023-02-05T04:15:36.223Z,100.00
2023-02-05T04:20:41.772Z,100.00
2023-02-05T04:25:44.417Z,100.00
2023-02-05T04:30:49.823Z,100.00
2023-02-05T04:35:51.609Z,100.00
2023-02-05T04:40:53.558Z,99.35
2023-02-05T04:45:55.251Z,97.37
2023-02-05T04:50:56.887Z,95.68
2023-02-05T04:56:10.110Z,94.33
2023-02-05T05:01:20.622Z,90.77
2023-02-05T05:06:22.424Z,92.34
2023-02-05T05:11:24.054Z,88.89
2023-02-05T05:16:25.800Z,88.70
2023-02-05T05:21:27.380Z,86.88
2023-02-05T05:26:29.007Z,86.08
2023-02-05T05:31:30.633Z,86.53
2023-02-05T05:36:32.376Z,85.28
2023-02-05T05:41:53.000Z,86.27
2023-02-05T05:46:54.771Z,86.17
2023-02-05T05:51:56.414Z,85.35
2023-02-05T05:56:57.996Z,87.39
2023-02-05T06:02:01.392Z,83.57
2023-02-05T06:07:03.004Z,84.79
2023-02-05T06:12:04.765Z,82.53
2023-02-05T06:17:07.469Z,83.43
2023-02-05T06:22:09.308Z,84.27
2023-02-05T06:27:10.975Z,83.31
2023-02-05T06:32:12.611Z,86.51
2023-02-05T06:37:14.619Z,82.58
2023-02-05T06:42:16.230Z,82.18
2023-02-05T06:47:17.961Z,84.26
2023-02-05T06:52:19.592Z,82.96
2023-02-05T06:57:21.263Z,82.28
2023-02-05T07:02:22.907Z,82.63
2023-02-05T07:07:24.508Z,82.82
2023-02-05T07:12:26.387Z,84.04
2023-02-05T07:17:27.973Z,82.53
2023-02-05T07:22:29.635Z,82.38
2023-02-05T07:27:31.335Z,82.86
2023-02-05T07:32:32.922Z,82.24
2023-02-05T07:37:37.351Z,82.06
2023-02-05T07:42:38.968Z,81.48
2023-02-05T07:47:42.533Z,80.77
2023-02-05T07:52:44.434Z,80.13
2023-02-05T07:57:47.183Z,81.24
2023-02-05T08:02:49.589Z,82.49
2023-02-05T08:07:51.463Z,81.62
2023-02-05T08:12:53.178Z,79.89
2023-02-05T08:17:55.397Z,80.54
2023-02-05T08:22:57.177Z,79.03
2023-02-05T08:27:58.960Z,78.97
2023-02-05T08:33:00.753Z,80.60
2023-02-05T08:38:03.780Z,80.76
2023-02-05T08:43:05.550Z,79.61
2023-02-05T08:48:07.873Z,79.81
2023-02-05T08:53:09.789Z,78.69
2023-02-05T08:58:11.636Z,78.38
2023-02-05T09:03:13.384Z,78.27
2023-02-05T09:08:15.041Z,78.68
2023-02-05T09:13:16.787Z,78.93
2023-02-05T09:18:18.580Z,80.07
2023-02-05T09:23:20.601Z,77.45
2023-02-05T09:28:22.378Z,77.71
2023-02-05T09:33:24.168Z,76.28
2023-02-05T09:38:25.793Z,77.50
2023-02-05T09:43:52.351Z,77.21
2023-02-05T09:49:42.286Z,78.38
2023-02-05T09:54:49.728Z,77.92
2023-02-05T09:59:51.456Z,79.15
2023-02-05T10:04:54.912Z,79.14
2023-02-05T10:10:16.106Z,79.64
2023-02-05T10:15:53.280Z,79.66
2023-02-05T10:21:13.351Z,78.03
2023-02-05T10:26:18.372Z,77.83
2023-02-05T10:31:42.243Z,77.95
2023-02-05T10:36:49.267Z,77.39
2023-02-05T10:42:06.841Z,72.91
2023-02-05T10:47:24.909Z,75.12
2023-02-05T10:52:26.922Z,76.17
2023-02-05T10:57:34.051Z,75.69
2023-02-05T11:02:41.498Z,75.46
2023-02-05T11:07:49.613Z,75.42
2023-02-05T11:12:55.761Z,74.13
2023-02-05T11:18:04.469Z,74.22
2023-02-05T11:23:17.966Z,74.03
2023-02-05T11:28:27.820Z,73.61
2023-02-05T11:33:31.439Z,75.02
2023-02-05T11:38:42.195Z,75.16
2023-02-05T11:43:50.972Z,73.29
2023-02-05T11:49:00.853Z,75.43
2023-02-05T11:54:07.618Z,74.27
2023-02-05T11:59:22.774Z,72.59
2023-02-05T12:04:26.370Z,73.53
2023-02-05T12:09:28.092Z,75.74
2023-02-05T12:15:00.939Z,77.63
2023-02-05T12:20:16.725Z,75.01
2023-02-05T12:25:51.668Z,68.85
2023-02-05T12:30:58.054Z,69.41
2023-02-05T12:36:27.090Z,73.38
2023-02-05T12:41:53.190Z,69.95
2023-02-05T12:47:19.705Z,76.13
2023-02-05T12:53:13.915Z,71.47
2023-02-05T12:58:19.135Z,73.52
2023-02-05T13:03:38.833Z,73.05
2023-02-05T13:09:05.511Z,71.75
2023-02-05T13:14:19.998Z,70.41
2023-02-05T13:19:30.930Z,67.48
2023-02-05T13:25:06.808Z,69.86
2023-02-05T13:30:16.884Z,67.86
2023-02-05T13:35:22.034Z,72.14
2023-02-05T13:40:47.325Z,71.38
2023-02-05T13:46:38.976Z,73.95
2023-02-05T13:51:55.821Z,70.22
2023-02-05T13:57:31.536Z,71.95
2023-02-05T14:02:43.497Z,70.57
2023-02-05T14:07:50.874Z,69.87
2023-02-05T14:12:52.978Z,69.17
2023-02-05T14:17:55.902Z,69.46
2023-02-05T14:23:01.078Z,68.74
2023-02-05T14:28:08.944Z,70.26
2023-02-05T14:33:10.682Z,69.12
2023-02-05T14:38:31.208Z,70.79
2023-02-05T14:43:36.422Z,71.01
2023-02-05T14:48:43.185Z,73.28
2023-02-05T14:53:55.877Z,71.21
2023-02-05T14:59:05.217Z,69.43
2023-02-05T15:04:20.446Z,70.50
2023-02-05T15:09:45.993Z,70.63
2023-02-05T15:14:47.546Z,70.83
2023-02-05T15:20:05.932Z,67.20
2023-02-05T15:25:28.167Z,65.22
2023-02-05T15:30:45.989Z,70.10
2023-02-05T15:35:49.886Z,64.82
2023-02-05T15:40:52.627Z,68.66
2023-02-05T15:46:14.635Z,71.28
2023-02-05T15:51:28.744Z,67.13
2023-02-05T15:56:41.399Z,65.15
2023-02-05T16:01:49.494Z,70.58
2023-02-05T16:06:51.130Z,67.11
2023-02-05T16:11:53.193Z,67.72
2023-02-05T16:17:25.234Z,66.54
2023-02-05T16:22:42.681Z,67.02
2023-02-05T16:27:49.457Z,66.91
2023-02-05T16:32:55.821Z,66.96
2023-02-05T16:37:58.977Z,67.44
2023-02-05T16:43:16.100Z,67.72
2023-02-05T16:48:23.405Z,68.84
2023-02-05T16:53:31.615Z,69.16
2023-02-05T16:58:38.372Z,69.20
2023-02-05T17:03:41.553Z,69.59
2023-02-05T17:08:52.940Z,70.49
2023-02-05T17:14:12.930Z,69.61
2023-02-05T17:19:33.228Z,70.08
2023-02-05T17:24:34.910Z,70.25
2023-02-05T17:29:37.780Z,69.58
2023-02-05T17:34:39.683Z,70.73
2023-02-05T17:39:41.671Z,70.45
2023-02-05T17:44:43.337Z,71.02
2023-02-05T17:49:45.052Z,70.51
2023-02-05T17:54:47.508Z,70.75
2023-02-05T17:59:50.295Z,70.99
2023-02-05T18:04:52.633Z,71.43
2023-02-05T18:09:54.401Z,71.17
2023-02-05T18:14:56.376Z,71.33
2023-02-05T18:19:58.042Z,72.23
2023-02-05T18:24:59.759Z,73.38
2023-02-05T18:30:01.768Z,73.01
2023-02-05T18:35:14.988Z,72.37
2023-02-05T18:40:16.903Z,72.67
2023-02-05T18:45:19.445Z,73.07
2023-02-05T18:50:21.979Z,73.52
2023-02-05T18:55:23.767Z,74.65
2023-02-05T19:00:25.533Z,74.45
2023-02-05T19:05:27.748Z,74.51
2023-02-05T19:10:29.566Z,74.89
2023-02-05T19:15:31.786Z,75.01
2023-02-05T19:20:34.427Z,75.41
2023-02-05T19:25:37.332Z,74.68
2023-02-05T19:30:39.242Z,74.27
2023-02-05T19:35:41.334Z,74.56
2023-02-05T19:40:43.278Z,74.82
2023-02-05T19:45:45.469Z,74.66
2023-02-05T19:50:47.187Z,74.37
2023-02-05T19:55:49.117Z,75.53
2023-02-05T20:00:51.628Z,75.70
2023-02-05T20:05:53.510Z,75.71
2023-02-05T20:11:00.002Z,75.52
2023-02-05T20:16:07.625Z,75.69
2023-02-05T20:21:12.247Z,75.99
2023-02-05T20:26:18.926Z,76.04
2023-02-05T20:31:33.517Z,76.16
2023-02-05T20:36:37.729Z,76.47
2023-02-05T20:41:39.437Z,76.61
2023-02-05T20:46:41.450Z,77.33
2023-02-05T20:51:43.783Z,77.16
2023-02-05T20:56:45.433Z,77.43
2023-02-05T21:01:47.244Z,77.16
2023-02-05T21:06:49.422Z,77.13
2023-02-05T21:11:55.480Z,77.42
2023-02-05T21:16:57.379Z,77.22
2023-02-05T21:21:59.362Z,77.72
2023-02-05T21:27:01.233Z,77.34
2023-02-05T21:32:02.970Z,77.46
2023-02-05T21:37:04.638Z,77.48
2023-02-05T21:42:06.346Z,77.92
2023-02-05T21:47:08.020Z,77.81
2023-02-05T21:52:09.856Z,78.10
2023-02-05T21:57:11.533Z,78.03
2023-02-05T22:02:13.277Z,77.66
2023-02-05T22:07:14.900Z,77.38
2023-02-05T22:12:16.489Z,77.42
2023-02-05T22:17:18.237Z,78.56
2023-02-05T22:22:19.899Z,78.43
2023-02-05T22:27:21.723Z,78.04
2023-02-05T22:32:23.554Z,77.47
2023-02-05T22:37:25.219Z,77.48
2023-02-05T22:42:27.010Z,77.48
2023-02-05T22:47:29.281Z,77.87
2023-02-05T22:52:30.879Z,77.95
2023-02-05T22:57:32.551Z,78.83
2023-02-05T23:02:34.581Z,78.81
2023-02-05T23:07:36.210Z,78.92
2023-02-05T23:12:37.841Z,78.60
2023-02-05T23:17:39.542Z,78.73
2023-02-05T23:22:41.260Z,79.25
2023-02-05T23:27:43.003Z,79.71
2023-02-05T23:32:44.762Z,79.32
2023-02-05T23:37:46.409Z,79.48
2023-02-05T23:42:48.001Z,79.50
2023-02-05T23:47:49.583Z,79.55
2023-02-05T23:52:51.285Z,79.63
2023-02-05T23:57:53.480Z,79.90
